createdAt,value
2022-08-12T00:01:11.056Z,10.15
2022-08-12T00:03:56.503Z,10.10
2022-08-12T00:06:44.303Z,9.93
2022-08-12T00:09:29.832Z,9.60
2022-08-12T00:12:15.906Z,9.93
2022-08-12T00:15:03.111Z,10.48
2022-08-12T00:17:48.602Z,9.57
2022-08-12T00:20:34.739Z,9.70
2022-08-12T00:23:21.125Z,9.68
2022-08-12T00:26:23.183Z,9.25
2022-08-12T00:29:11.955Z,9.48
2022-08-12T00:32:00.498Z,9.50
2022-08-12T00:34:49.215Z,9.95
2022-08-12T00:37:36.452Z,9.23
2022-08-12T00:40:27.690Z,10.48
2022-08-12T00:42:56.703Z,9.38
2022-08-12T00:45:24.052Z,10.20
2022-08-12T00:47:53.254Z,9.60
2022-08-12T00:50:23.550Z,10.02
2022-08-12T00:52:53.239Z,9.88
2022-08-12T00:55:21.502Z,9.55
2022-08-12T00:57:50.830Z,9.45
2022-08-12T01:00:23.284Z,9.20
2022-08-12T01:02:53.796Z,10.30
2022-08-12T01:05:41.958Z,9.60
2022-08-12T01:08:48.515Z,8.73
2022-08-12T01:11:33.139Z,10.80
2022-08-12T01:14:02.293Z,10.05
2022-08-12T01:16:30.971Z,9.50
2022-08-12T01:18:58.719Z,9.30
2022-08-12T01:21:55.444Z,10.30
2022-08-12T01:24:53.417Z,8.95
2022-08-12T01:27:23.621Z,9.82
2022-08-12T01:29:53.387Z,9.68
2022-08-12T01:32:22.728Z,9.82
2022-08-12T01:35:03.625Z,9.57
2022-08-12T01:37:33.893Z,10.20
2022-08-12T01:40:34.535Z,9.30
2022-08-12T01:42:52.264Z,9.77
2022-08-12T01:45:25.093Z,9.82
2022-08-12T01:48:29.623Z,9.93
2022-08-12T01:51:11.966Z,9.73
2022-08-12T01:54:11.001Z,9.95
2022-08-12T01:57:02.567Z,10.15
2022-08-12T01:59:50.182Z,9.57
2022-08-12T02:02:32.970Z,9.95
2022-08-12T02:05:49.284Z,9.95
2022-08-12T02:09:09.127Z,10.32
2022-08-12T02:12:00.561Z,10.02
2022-08-12T02:14:51.983Z,10.27
2022-08-12T02:17:55.267Z,10.07
2022-08-12T02:20:51.490Z,10.32
2022-08-12T02:23:27.273Z,10.45
2022-08-12T02:25:59.704Z,10.70
2022-08-12T02:28:29.194Z,9.90
2022-08-12T02:31:02.255Z,11.00
2022-08-12T02:33:30.191Z,11.00
2022-08-12T02:35:58.210Z,10.55
2022-08-12T02:38:28.163Z,11.35
2022-08-12T02:41:02.872Z,11.82
2022-08-12T02:43:49.638Z,12.10
2022-08-12T02:46:23.826Z,10.68
2022-08-12T02:49:16.249Z,11.65
2022-08-12T02:51:47.266Z,11.57
2022-08-12T02:54:14.916Z,11.48
2022-08-12T02:56:50.955Z,11.85
2022-08-12T02:59:22.876Z,11.77
2022-08-12T03:01:50.007Z,11.40
2022-08-12T03:04:45.065Z,11.10
2022-08-12T03:07:18.491Z,12.10
2022-08-12T03:10:05.625Z,11.55
2022-08-12T03:12:49.138Z,12.05
2022-08-12T03:15:24.146Z,11.88
2022-08-12T03:18:25.907Z,11.65
2022-08-12T03:20:48.431Z,12.27
2022-08-12T03:23:28.987Z,12.52
2022-08-12T03:26:02.079Z,11.80
2022-08-12T03:28:53.180Z,11.90
2022-08-12T03:31:21.812Z,11.90
2022-08-12T03:34:01.327Z,11.65
2022-08-12T03:36:35.423Z,12.35
2022-08-12T03:39:16.172Z,11.63
2022-08-12T03:42:07.631Z,12.60
2022-08-12T03:44:57.525Z,12.15
2022-08-12T03:47:57.399Z,11.95
2022-08-12T03:50:44.980Z,11.77
2022-08-12T03:53:31.288Z,11.52
2022-08-12T03:56:16.974Z,12.30
2022-08-12T03:59:02.914Z,11.82
2022-08-12T04:01:30.490Z,12.23
2022-08-12T04:03:58.269Z,11.90
2022-08-12T04:06:34.290Z,11.93
2022-08-12T04:09:14.485Z,12.13
2022-08-12T04:12:03.780Z,12.02
2022-08-12T04:14:32.326Z,12.45
2022-08-12T04:17:00.410Z,12.75
2022-08-12T04:19:28.679Z,12.38
2022-08-12T04:22:02.827Z,12.25
2022-08-12T04:24:35.575Z,12.77
2022-08-12T04:27:08.871Z,12.25
2022-08-12T04:30:16.368Z,11.68
2022-08-12T04:32:26.382Z,14.98
2022-08-12T04:34:54.872Z,12.55
2022-08-12T04:37:22.134Z,12.75
2022-08-12T04:39:50.227Z,11.38
2022-08-12T04:42:17.401Z,11.30
2022-08-12T04:44:45.421Z,11.40
2022-08-12T04:47:17.176Z,11.63
2022-08-12T04:49:48.360Z,11.55
2022-08-12T04:52:15.643Z,10.93
2022-08-12T04:54:44.264Z,11.23
2022-08-12T04:57:12.005Z,11.68
2022-08-12T04:59:46.567Z,11.80
2022-08-12T05:02:21.478Z,11.02
2022-08-12T05:04:55.860Z,10.55
2022-08-12T05:07:23.539Z,11.02
2022-08-12T05:09:59.036Z,11.80
2022-08-12T05:12:34.485Z,11.23
2022-08-12T05:15:01.933Z,11.55
2022-08-12T05:17:29.143Z,11.65
2022-08-12T05:19:58.113Z,11.05
2022-08-12T05:22:28.615Z,11.65
2022-08-12T05:24:55.931Z,12.50
2022-08-12T05:27:23.131Z,13.43
2022-08-12T05:30:05.583Z,14.18
2022-08-12T05:32:37.269Z,16.70
2022-08-12T05:35:07.127Z,15.85
2022-08-12T05:37:35.704Z,14.68
2022-08-12T05:40:10.587Z,13.73
2022-08-12T05:42:39.053Z,12.32
2022-08-12T05:45:07.347Z,13.10
2022-08-12T05:47:52.619Z,12.57
2022-08-12T05:50:20.774Z,12.93
2022-08-12T05:52:48.650Z,12.50
2022-08-12T05:55:16.056Z,12.70
2022-08-12T05:57:48.655Z,12.45
2022-08-12T06:00:17.601Z,11.43
2022-08-12T06:02:46.720Z,11.98
2022-08-12T06:05:14.221Z,11.20
2022-08-12T06:08:01.836Z,10.27
2022-08-12T06:10:33.316Z,7.45
2022-08-12T06:13:02.722Z,6.38
2022-08-12T06:15:31.975Z,6.05
2022-08-12T06:18:11.939Z,5.40
2022-08-12T06:20:43.939Z,5.35
2022-08-12T06:23:12.128Z,5.00
2022-08-12T06:25:39.451Z,5.22
2022-08-12T06:28:17.700Z,5.22
2022-08-12T06:30:53.093Z,4.93
2022-08-12T06:33:59.481Z,4.70
2022-08-12T06:36:23.446Z,5.03
2022-08-12T06:38:51.750Z,5.05
2022-08-12T06:41:37.231Z,5.38
2022-08-12T06:44:09.279Z,5.90
2022-08-12T06:46:39.585Z,6.60
2022-08-12T06:49:07.128Z,7.05
2022-08-12T06:51:34.526Z,7.35
2022-08-12T06:54:02.028Z,7.97
2022-08-12T06:57:01.793Z,6.80
2022-08-12T06:59:17.202Z,7.28
2022-08-12T07:01:50.859Z,7.20
2022-08-12T07:04:36.159Z,7.47
2022-08-12T07:07:05.713Z,7.07
2022-08-12T07:10:04.375Z,7.57
2022-08-12T07:12:20.125Z,7.53
2022-08-12T07:14:51.735Z,7.80
2022-08-12T07:17:19.224Z,8.32
2022-08-12T07:19:48.714Z,7.72
2022-08-12T07:22:16.629Z,9.27
2022-08-12T07:25:04.156Z,8.25
2022-08-12T07:27:31.537Z,8.10
2022-08-12T07:30:04.113Z,7.68
2022-08-12T07:32:32.534Z,7.53
2022-08-12T07:34:59.778Z,8.13
2022-08-12T07:37:26.927Z,7.90
2022-08-12T07:39:59.550Z,7.00
2022-08-12T07:42:29.516Z,6.32
2022-08-12T07:44:57.324Z,5.03
2022-08-12T07:47:25.303Z,4.40
2022-08-12T07:50:05.633Z,4.82
2022-08-12T07:52:35.439Z,4.53
2022-08-12T07:55:03.645Z,5.35
2022-08-12T07:57:34.203Z,5.57
2022-08-12T08:00:06.707Z,6.15
2022-08-12T08:02:37.805Z,6.20
2022-08-12T08:05:05.662Z,5.50
2022-08-12T08:07:33.261Z,5.65
2022-08-12T08:10:02.453Z,5.43
2022-08-12T08:12:48.599Z,6.57
2022-08-12T08:15:16.670Z,6.20
2022-08-12T08:18:03.178Z,6.65
2022-08-12T08:20:34.102Z,5.95
2022-08-12T08:23:06.405Z,5.97
2022-08-12T08:25:37.688Z,6.40
2022-08-12T08:28:11.187Z,6.68
2022-08-12T08:30:43.189Z,7.07
2022-08-12T08:35:54.273Z,6.78
2022-08-12T08:38:32.640Z,6.30
2022-08-12T08:42:13.895Z,6.10
2022-08-12T08:44:11.440Z,6.40
2022-08-12T08:46:40.203Z,6.32
2022-08-12T08:49:09.494Z,5.28
2022-08-12T08:51:37.507Z,5.85
2022-08-12T08:54:07.122Z,5.95
2022-08-12T08:56:43.033Z,6.22
2022-08-12T08:59:12.096Z,5.93
2022-08-12T09:01:40.240Z,5.60
2022-08-12T09:05:08.165Z,6.03
2022-08-12T09:07:00.420Z,5.50
2022-08-12T09:10:01.599Z,5.38
2022-08-12T09:12:55.179Z,6.07
2022-08-12T09:15:35.277Z,5.55
2022-08-12T09:18:08.812Z,4.50
2022-08-12T09:20:38.601Z,5.55
2022-08-12T09:24:00.568Z,4.65
2022-08-12T09:26:04.223Z,4.63
2022-08-12T09:28:33.633Z,5.03
2022-08-12T09:31:01.597Z,4.70
2022-08-12T09:34:25.759Z,4.32
2022-08-12T09:36:31.102Z,4.75
2022-08-12T09:40:06.164Z,4.70
2022-08-12T09:42:53.150Z,5.60
2022-08-12T09:45:24.573Z,5.57
2022-08-12T09:48:10.312Z,4.93
2022-08-12T09:50:55.638Z,5.07
2022-08-12T09:53:36.008Z,4.80
2022-08-12T09:56:57.075Z,4.97
2022-08-12T09:58:59.860Z,6.05
2022-08-12T10:01:34.381Z,5.53
2022-08-12T10:04:19.900Z,5.78
2022-08-12T10:06:55.046Z,5.15
2022-08-12T10:09:56.901Z,5.78
2022-08-12T10:13:06.497Z,5.82
2022-08-12T10:16:02.551Z,5.30
2022-08-12T10:18:07.824Z,6.18
2022-08-12T10:20:35.291Z,5.00
2022-08-12T10:23:03.660Z,5.88
2022-08-12T10:26:34.686Z,5.65
2022-08-12T10:29:02.821Z,5.90
2022-08-12T10:32:19.767Z,5.80
2022-08-12T10:34:26.270Z,5.70
2022-08-12T10:37:00.421Z,5.72
2022-08-12T10:40:08.271Z,4.97
2022-08-12T10:43:00.508Z,5.88
2022-08-12T10:45:30.470Z,5.63
2022-08-12T10:48:07.550Z,5.63
2022-08-12T10:51:00.347Z,5.03
2022-08-12T10:53:44.304Z,4.97
2022-08-12T10:58:46.067Z,5.18
2022-08-12T11:01:50.290Z,4.82
2022-08-12T11:04:20.568Z,4.68
2022-08-12T11:07:07.395Z,5.50
2022-08-12T11:09:55.778Z,4.88
2022-08-12T11:12:56.675Z,4.95
2022-08-12T11:15:24.316Z,5.22
2022-08-12T11:18:12.059Z,5.07
2022-08-12T11:20:45.481Z,5.28
2022-08-12T11:23:24.582Z,4.45
2022-08-12T11:26:05.526Z,5.38
2022-08-12T11:28:36.954Z,4.82
2022-08-12T11:31:12.134Z,4.70
2022-08-12T11:34:04.502Z,4.47
2022-08-12T11:36:31.215Z,4.65
2022-08-12T11:39:04.121Z,5.15
2022-08-12T11:41:33.907Z,5.20
2022-08-12T11:44:20.231Z,4.72
2022-08-12T11:46:51.339Z,4.57
2022-08-12T11:49:30.677Z,4.03
2022-08-12T11:52:00.332Z,3.80
2022-08-12T11:54:29.565Z,3.83
2022-08-12T11:57:00.589Z,3.85
2022-08-12T12:02:20.574Z,4.10
2022-08-12T12:04:52.310Z,4.72
2022-08-12T12:07:33.680Z,4.68
2022-08-12T12:10:11.749Z,5.38
2022-08-12T12:12:41.560Z,5.57
2022-08-12T12:15:24.729Z,5.38
2022-08-12T12:17:55.019Z,5.40
2022-08-12T12:20:26.004Z,6.63
2022-08-12T12:22:55.069Z,5.60
2022-08-12T12:25:59.653Z,6.45
2022-08-12T12:28:09.843Z,5.85
2022-08-12T12:30:57.211Z,5.72
2022-08-12T12:33:26.933Z,5.60
2022-08-12T12:36:20.291Z,5.20
2022-08-12T12:38:50.410Z,5.72
2022-08-12T12:41:17.550Z,5.38
2022-08-12T12:43:56.567Z,5.63
2022-08-12T12:46:31.913Z,5.05
2022-08-12T12:48:59.062Z,5.38
2022-08-12T12:51:49.109Z,5.72
2022-08-12T12:54:13.628Z,5.75
2022-08-12T12:56:47.968Z,5.35
2022-08-12T12:59:55.230Z,6.38
2022-08-12T13:02:08.695Z,5.13
2022-08-12T13:04:37.874Z,5.18
2022-08-12T13:07:06.550Z,4.82
2022-08-12T13:09:36.085Z,5.43
2022-08-12T13:12:14.566Z,5.53
2022-08-12T13:15:17.032Z,4.85
2022-08-12T13:18:38.869Z,4.88
2022-08-12T13:21:43.292Z,4.88
2022-08-12T13:24:36.683Z,5.03
2022-08-12T13:27:48.403Z,5.03
2022-08-12T13:30:48.394Z,5.47
2022-08-12T13:34:32.870Z,5.50
2022-08-12T13:36:45.487Z,5.47
2022-08-12T13:39:16.265Z,5.22
2022-08-12T13:41:44.715Z,5.78
2022-08-12T13:44:13.766Z,5.30
2022-08-12T13:46:43.727Z,5.40
2022-08-12T13:49:54.486Z,6.10
2022-08-12T13:52:15.683Z,6.18
2022-08-12T13:55:13.666Z,5.20
2022-08-12T13:57:44.440Z,5.35
2022-08-12T14:00:45.397Z,5.40
2022-08-12T14:17:19.935Z,5.25
2022-08-12T14:20:08.209Z,5.55
2022-08-12T14:24:01.604Z,5.72
2022-08-12T14:25:51.398Z,5.93
2022-08-12T14:31:01.198Z,5.97
2022-08-12T14:33:44.115Z,5.18
2022-08-12T14:36:14.837Z,5.63
2022-08-12T14:38:47.050Z,4.75
2022-08-12T14:41:20.764Z,5.85
2022-08-12T14:44:04.833Z,5.47
2022-08-12T14:46:44.164Z,4.82
2022-08-12T14:53:04.582Z,6.22
2022-08-12T14:58:06.909Z,6.30
2022-08-12T15:00:53.419Z,7.40
2022-08-12T15:03:52.504Z,7.40
2022-08-12T15:06:39.084Z,6.65
2022-08-12T15:09:12.231Z,6.25
2022-08-12T15:11:54.881Z,6.90
2022-08-12T15:14:27.699Z,5.75
2022-08-12T15:17:00.736Z,5.85
2022-08-12T15:20:11.529Z,6.70
2022-08-12T15:22:54.016Z,6.95
2022-08-12T15:25:22.068Z,6.05
2022-08-12T15:28:05.159Z,5.82
2022-08-12T15:30:42.787Z,5.90
2022-08-12T15:33:20.963Z,5.97
2022-08-12T15:36:02.694Z,6.53
2022-08-12T15:38:54.127Z,6.82
2022-08-12T15:41:23.035Z,6.80
2022-08-12T15:44:37.709Z,6.78
2022-08-12T15:49:16.862Z,5.85
2022-08-12T15:51:59.163Z,6.40
2022-08-12T15:54:42.276Z,6.65
2022-08-12T15:57:17.192Z,6.72
2022-08-12T16:00:00.808Z,6.10
2022-08-12T16:02:50.403Z,6.43
2022-08-12T16:06:19.157Z,5.93
2022-08-12T16:08:24.033Z,6.35
2022-08-12T16:11:00.776Z,6.97
2022-08-12T16:13:36.920Z,5.63
2022-08-12T16:16:22.911Z,6.20
2022-08-12T16:18:59.602Z,6.53
2022-08-12T16:21:52.243Z,6.97
2022-08-12T16:24:26.127Z,6.82
2022-08-12T16:26:54.247Z,6.30
2022-08-12T16:29:38.632Z,6.50
2022-08-12T16:32:31.268Z,6.43
2022-08-12T16:35:01.582Z,6.20
2022-08-12T16:38:25.844Z,7.30
2022-08-12T16:40:28.176Z,8.23
2022-08-12T16:43:02.119Z,6.82
2022-08-12T16:46:24.060Z,7.60
2022-08-12T16:48:35.653Z,13.27
2022-08-12T16:51:12.938Z,7.75
2022-08-12T16:53:46.802Z,7.07
2022-08-12T16:56:17.436Z,7.07
2022-08-12T16:58:47.416Z,6.20
2022-08-12T17:01:16.808Z,6.22
2022-08-12T17:04:08.606Z,6.22
2022-08-12T17:07:11.038Z,7.45
2022-08-12T17:09:45.566Z,6.95
2022-08-12T17:12:14.482Z,6.30
2022-08-12T17:14:43.079Z,6.85
2022-08-12T17:17:48.042Z,7.43
2022-08-12T17:20:35.440Z,7.18
2022-08-12T17:23:13.503Z,7.60
2022-08-12T17:25:45.185Z,6.65
2022-08-12T17:28:22.505Z,6.78
2022-08-12T17:31:00.113Z,7.00
2022-08-12T17:33:34.488Z,6.07
2022-08-12T17:36:05.904Z,6.68
2022-08-12T17:38:39.927Z,6.50
2022-08-12T17:41:22.439Z,7.03
2022-08-12T17:44:00.187Z,7.05
2022-08-12T17:46:32.268Z,7.28
2022-08-12T17:49:18.931Z,6.13
2022-08-12T17:52:02.296Z,7.18
2022-08-12T17:54:31.373Z,6.53
2022-08-12T17:57:10.675Z,6.47
2022-08-12T17:59:49.522Z,7.13
2022-08-12T18:02:38.570Z,7.07
2022-08-12T18:05:55.311Z,7.85
2022-08-12T18:08:54.147Z,7.18
2022-08-12T18:12:04.139Z,7.13
2022-08-12T18:14:37.106Z,6.95
2022-08-12T18:17:08.814Z,6.90
2022-08-12T18:20:06.588Z,6.00
2022-08-12T18:22:59.622Z,6.97
2022-08-12T18:26:15.390Z,6.90
2022-08-12T18:28:43.298Z,6.18
2022-08-12T18:31:18.284Z,6.95
2022-08-12T18:33:48.988Z,7.25
2022-08-12T18:36:22.120Z,7.15
2022-08-12T18:39:01.279Z,6.97
2022-08-12T18:41:39.166Z,6.97
2022-08-12T18:44:45.735Z,6.97
2022-08-12T18:47:18.787Z,7.18
2022-08-12T18:50:14.091Z,7.43
2022-08-12T18:52:49.342Z,6.72
2022-08-12T18:55:17.131Z,7.78
2022-08-12T18:58:08.593Z,8.38
2022-08-12T19:01:05.520Z,7.82
2022-08-12T19:03:45.434Z,7.82
2022-08-12T19:06:46.689Z,7.35
2022-08-12T19:09:39.010Z,6.97
2022-08-12T19:12:37.123Z,7.38
2022-08-12T19:15:08.946Z,7.57
2022-08-12T19:17:56.849Z,8.05
2022-08-12T19:20:25.912Z,7.47
2022-08-12T19:22:59.981Z,7.45
2022-08-12T19:26:27.817Z,7.60
2022-08-12T19:29:31.119Z,7.63
2022-08-12T19:32:23.345Z,7.90
2022-08-12T19:36:07.116Z,7.63
2022-08-12T19:38:16.462Z,7.78
2022-08-12T19:40:53.700Z,7.50
2022-08-12T19:44:00.794Z,8.07
2022-08-12T19:49:28.914Z,8.25
2022-08-12T19:51:58.082Z,8.35
2022-08-12T19:54:30.596Z,9.52
2022-08-12T19:57:17.213Z,7.85
2022-08-12T20:00:04.201Z,8.27
2022-08-12T20:03:03.028Z,8.52
2022-08-12T20:06:06.483Z,8.25
2022-08-12T20:08:31.697Z,8.57
2022-08-12T20:12:12.608Z,8.68
2022-08-12T20:14:01.271Z,8.68
2022-08-12T20:16:56.543Z,9.15
2022-08-12T20:22:44.953Z,9.38
2022-08-12T20:25:51.891Z,8.75
2022-08-12T20:28:34.401Z,8.23
2022-08-12T20:31:04.288Z,8.25
2022-08-12T20:34:03.805Z,8.32
2022-08-12T20:36:45.452Z,9.45
2022-08-12T20:39:37.356Z,8.40
2022-08-12T20:42:10.826Z,8.23
2022-08-12T20:45:02.132Z,9.13
2022-08-12T20:47:46.718Z,9.55
2022-08-12T20:50:53.457Z,9.10
2022-08-12T20:53:33.230Z,8.75
2022-08-12T20:56:30.615Z,9.45
2022-08-12T20:59:08.856Z,9.70
2022-08-12T21:01:47.458Z,9.15
2022-08-12T21:04:37.385Z,9.70
2022-08-12T21:07:10.419Z,9.10
2022-08-12T21:09:45.774Z,10.07
2022-08-12T21:12:31.620Z,9.48
2022-08-12T21:15:23.138Z,8.75
2022-08-12T21:18:11.094Z,9.05
2022-08-12T21:20:54.355Z,9.15
2022-08-12T21:23:23.342Z,9.57
2022-08-12T21:26:01.333Z,9.60
2022-08-12T21:28:32.046Z,9.30
2022-08-12T21:32:36.021Z,8.60
2022-08-12T21:34:07.017Z,8.90
2022-08-12T21:36:40.353Z,8.80
2022-08-12T21:39:18.383Z,8.60
2022-08-12T21:41:51.927Z,8.23
2022-08-12T21:44:24.117Z,9.15
2022-08-12T21:47:21.718Z,8.80
2022-08-12T21:50:03.372Z,8.05
2022-08-12T21:52:41.097Z,8.23
2022-08-12T21:55:18.761Z,8.88
2022-08-12T21:57:53.932Z,9.55
2022-08-12T22:00:32.492Z,9.63
2022-08-12T22:04:02.301Z,10.13
2022-08-12T22:06:31.135Z,9.23
2022-08-12T22:09:16.552Z,9.23
2022-08-12T22:11:58.686Z,9.52
2022-08-12T22:14:30.271Z,8.50
2022-08-12T22:17:00.452Z,8.70
2022-08-12T22:19:28.260Z,7.72
2022-08-12T22:21:58.685Z,8.30
2022-08-12T22:24:30.326Z,8.50
2022-08-12T22:27:14.295Z,8.05
2022-08-12T22:30:05.643Z,8.25
2022-08-12T22:32:38.888Z,7.53
2022-08-12T22:35:29.538Z,7.97
2022-08-12T22:38:19.409Z,7.95
2022-08-12T22:40:48.491Z,8.18
2022-08-12T22:43:34.428Z,8.45
2022-08-12T22:46:14.043Z,8.35
2022-08-12T22:48:50.303Z,8.02
2022-08-12T22:51:22.175Z,8.45
2022-08-12T22:53:55.498Z,9.40
2022-08-12T22:56:30.804Z,8.55
2022-08-12T22:59:02.609Z,8.35
2022-08-12T23:01:52.037Z,8.80
2022-08-12T23:04:27.597Z,8.10
2022-08-12T23:06:58.486Z,8.68
2022-08-12T23:09:48.069Z,9.05
2022-08-12T23:12:38.977Z,9.40
2022-08-12T23:15:09.065Z,9.55
2022-08-12T23:17:40.642Z,8.90
2022-08-12T23:20:11.090Z,8.32
2022-08-12T23:22:40.197Z,8.15
2022-08-12T23:25:21.091Z,7.85
2022-08-12T23:28:29.419Z,8.25
2022-08-12T23:31:04.186Z,8.32
2022-08-12T23:34:02.120Z,7.68
2022-08-12T23:36:39.379Z,8.45
2022-08-12T23:40:06.682Z,7.45
2022-08-12T23:42:17.836Z,8.15
2022-08-12T23:44:48.459Z,7.60
2022-08-12T23:47:23.023Z,8.02
2022-08-12T23:49:58.020Z,6.90
2022-08-12T23:52:34.253Z,7.45
2022-08-12T23:55:23.874Z,7.15
2022-08-12T23:58:18.380Z,7.72
